sensor_id;sensor_type;location;lat;lon;timestamp;temperature;humidity
25991;DHT22;13779;-33.886;151.198;2022-12-07T00:02:01;22.90;99.90
25991;DHT22;13779;-33.886;151.198;2022-12-07T00:04:31;22.80;99.90
25991;DHT22;13779;-33.886;151.198;2022-12-07T00:07:01;22.80;99.90
25991;DHT22;13779;-33.886;151.198;2022-12-07T00:09:32;22.80;99.90
25991;DHT22;13779;-33.886;151.198;2022-12-07T00:12:02;22.70;99.90
25991;DHT22;13779;-33.886;151.198;2022-12-07T00:14:32;22.70;99.90
25991;DHT22;13779;-33.886;151.198;2022-12-07T00:17:02;22.80;99.90
25991;DHT22;13779;-33.886;151.198;2022-12-07T00:19:32;22.80;99.90
25991;DHT22;13779;-33.886;151.198;2022-12-07T00:22:02;22.90;99.90
25991;DHT22;13779;-33.886;151.198;2022-12-07T00:24:33;22.90;99.90
25991;DHT22;13779;-33.886;151.198;2022-12-07T00:27:03;22.80;99.90
25991;DHT22;13779;-33.886;151.198;2022-12-07T00:29:33;22.80;99.90
25991;DHT22;13779;-33.886;151.198;2022-12-07T00:32:03;22.80;99.90
25991;DHT22;13779;-33.886;151.198;2022-12-07T00:34:34;22.80;99.90
25991;DHT22;13779;-33.886;151.198;2022-12-07T00:37:04;22.90;99.90
25991;DHT22;13779;-33.886;151.198;2022-12-07T00:39:35;23.00;99.90
25991;DHT22;13779;-33.886;151.198;2022-12-07T00:42:05;23.00;99.90
25991;DHT22;13779;-33.886;151.198;2022-12-07T00:44:35;23.00;99.90
25991;DHT22;13779;-33.886;151.198;2022-12-07T00:47:07;23.00;99.90
25991;DHT22;13779;-33.886;151.198;2022-12-07T00:49:37;23.00;99.90
25991;DHT22;13779;-33.886;151.198;2022-12-07T00:52:07;23.00;99.90
25991;DHT22;13779;-33.886;151.198;2022-12-07T00:54:37;23.10;99.90
25991;DHT22;13779;-33.886;151.198;2022-12-07T00:57:07;23.20;99.90
25991;DHT22;13779;-33.886;151.198;2022-12-07T00:59:37;23.20;99.90
25991;DHT22;13779;-33.886;151.198;2022-12-07T01:02:07;23.30;99.90
25991;DHT22;13779;-33.886;151.198;2022-12-07T01:04:38;23.30;99.90
25991;DHT22;13779;-33.886;151.198;2022-12-07T01:07:08;23.30;99.90
25991;DHT22;13779;-33.886;151.198;2022-12-07T01:09:38;23.40;99.90
25991;DHT22;13779;-33.886;151.198;2022-12-07T01:12:08;23.30;99.90
25991;DHT22;13779;-33.886;151.198;2022-12-07T01:14:38;23.30;99.90
25991;DHT22;13779;-33.886;151.198;2022-12-07T01:17:08;23.30;99.90
25991;DHT22;13779;-33.886;151.198;2022-12-07T01:19:38;23.20;99.90
25991;DHT22;13779;-33.886;151.198;2022-12-07T01:22:08;23.10;99.90
25991;DHT22;13779;-33.886;151.198;2022-12-07T01:24:38;23.10;99.90
25991;DHT22;13779;-33.886;151.198;2022-12-07T01:27:09;23.00;99.90
25991;DHT22;13779;-33.886;151.198;2022-12-07T01:29:40;23.00;99.90
25991;DHT22;13779;-33.886;151.198;2022-12-07T01:32:10;23.00;99.90
25991;DHT22;13779;-33.886;151.198;2022-12-07T01:34:40;23.00;99.90
25991;DHT22;13779;-33.886;151.198;2022-12-07T01:37:10;23.00;99.90
25991;DHT22;13779;-33.886;151.198;2022-12-07T01:39:40;22.90;99.90
25991;DHT22;13779;-33.886;151.198;2022-12-07T01:42:12;22.90;99.90
25991;DHT22;13779;-33.886;151.198;2022-12-07T01:47:55;22.90;99.90
25991;DHT22;13779;-33.886;151.198;2022-12-07T01:50:27;22.90;99.90
25991;DHT22;13779;-33.886;151.198;2022-12-07T01:53:04;22.90;99.90
25991;DHT22;13779;-33.886;151.198;2022-12-07T01:55:38;22.90;99.90
25991;DHT22;13779;-33.886;151.198;2022-12-07T01:58:11;22.80;99.90
25991;DHT22;13779;-33.886;151.198;2022-12-07T02:00:42;22.90;99.90
25991;DHT22;13779;-33.886;151.198;2022-12-07T02:03:30;22.90;99.90
25991;DHT22;13779;-33.886;151.198;2022-12-07T02:06:02;22.80;99.90
25991;DHT22;13779;-33.886;151.198;2022-12-07T02:08:33;22.80;99.90
25991;DHT22;13779;-33.886;151.198;2022-12-07T02:11:04;22.90;99.90
25991;DHT22;13779;-33.886;151.198;2022-12-07T02:13:37;22.90;99.90
25991;DHT22;13779;-33.886;151.198;2022-12-07T02:30:25;23.00;99.90
25991;DHT22;13779;-33.886;151.198;2022-12-07T02:38:14;23.00;99.90
25991;DHT22;13779;-33.886;151.198;2022-12-07T02:43:38;23.00;99.90
25991;DHT22;13779;-33.886;151.198;2022-12-07T02:46:14;23.00;99.90
25991;DHT22;13779;-33.886;151.198;2022-12-07T02:48:46;23.00;99.90
25991;DHT22;13779;-33.886;151.198;2022-12-07T02:51:18;23.00;99.90
25991;DHT22;13779;-33.886;151.198;2022-12-07T02:53:49;23.00;99.90
25991;DHT22;13779;-33.886;151.198;2022-12-07T02:56:27;23.00;99.90
25991;DHT22;13779;-33.886;151.198;2022-12-07T03:02:24;23.00;99.90
25991;DHT22;13779;-33.886;151.198;2022-12-07T03:05:21;23.00;99.90
25991;DHT22;13779;-33.886;151.198;2022-12-07T03:11:08;22.90;99.90
25991;DHT22;13779;-33.886;151.198;2022-12-07T03:16:21;23.00;99.90
25991;DHT22;13779;-33.886;151.198;2022-12-07T03:19:00;23.00;99.90
25991;DHT22;13779;-33.886;151.198;2022-12-07T03:21:42;23.00;99.90
25991;DHT22;13779;-33.886;151.198;2022-12-07T03:24:21;23.00;99.90
25991;DHT22;13779;-33.886;151.198;2022-12-07T03:27:24;23.00;99.90
25991;DHT22;13779;-33.886;151.198;2022-12-07T03:30:10;23.00;99.90
25991;DHT22;13779;-33.886;151.198;2022-12-07T03:35:45;23.10;99.90
25991;DHT22;13779;-33.886;151.198;2022-12-07T03:38:40;23.10;99.90
25991;DHT22;13779;-33.886;151.198;2022-12-07T03:41:25;23.10;99.90
25991;DHT22;13779;-33.886;151.198;2022-12-07T03:43:58;23.00;99.90
25991;DHT22;13779;-33.886;151.198;2022-12-07T03:46:39;23.00;99.90
25991;DHT22;13779;-33.886;151.198;2022-12-07T03:55:25;23.10;99.90
25991;DHT22;13779;-33.886;151.198;2022-12-07T03:58:06;23.20;99.90
25991;DHT22;13779;-33.886;151.198;2022-12-07T04:00:38;23.20;99.90
25991;DHT22;13779;-33.886;151.198;2022-12-07T04:03:09;23.20;99.90
25991;DHT22;13779;-33.886;151.198;2022-12-07T04:05:40;23.20;99.90
25991;DHT22;13779;-33.886;151.198;2022-12-07T04:08:10;23.30;99.90
25991;DHT22;13779;-33.886;151.198;2022-12-07T04:10:41;23.30;99.90
25991;DHT22;13779;-33.886;151.198;2022-12-07T04:13:12;23.30;99.90
25991;DHT22;13779;-33.886;151.198;2022-12-07T04:15:42;23.20;99.90
25991;DHT22;13779;-33.886;151.198;2022-12-07T04:18:13;23.20;99.90
25991;DHT22;13779;-33.886;151.198;2022-12-07T04:20:45;23.30;99.90
25991;DHT22;13779;-33.886;151.198;2022-12-07T04:23:16;23.30;99.90
25991;DHT22;13779;-33.886;151.198;2022-12-07T04:25:49;23.30;99.90
25991;DHT22;13779;-33.886;151.198;2022-12-07T04:28:19;23.30;99.90
25991;DHT22;13779;-33.886;151.198;2022-12-07T04:30:50;23.40;99.90
25991;DHT22;13779;-33.886;151.198;2022-12-07T04:33:20;23.40;99.90
25991;DHT22;13779;-33.886;151.198;2022-12-07T04:35:51;23.40;99.90
25991;DHT22;13779;-33.886;151.198;2022-12-07T04:38:21;23.50;99.90
25991;DHT22;13779;-33.886;151.198;2022-12-07T04:40:52;23.50;99.90
25991;DHT22;13779;-33.886;151.198;2022-12-07T04:43:22;23.50;99.90
25991;DHT22;13779;-33.886;151.198;2022-12-07T04:45:53;23.50;99.90
25991;DHT22;13779;-33.886;151.198;2022-12-07T04:48:25;23.60;99.90
25991;DHT22;13779;-33.886;151.198;2022-12-07T04:50:55;23.70;99.90
25991;DHT22;13779;-33.886;151.198;2022-12-07T04:53:26;23.80;99.90
25991;DHT22;13779;-33.886;151.198;2022-12-07T04:55:57;23.90;99.90
25991;DHT22;13779;-33.886;151.198;2022-12-07T04:58:31;24.20;99.90
25991;DHT22;13779;-33.886;151.198;2022-12-07T05:01:01;24.30;98.70
25991;DHT22;13779;-33.886;151.198;2022-12-07T05:03:32;24.50;92.50
25991;DHT22;13779;-33.886;151.198;2022-12-07T05:06:03;24.50;90.90
25991;DHT22;13779;-33.886;151.198;2022-12-07T05:08:39;24.60;88.80
25991;DHT22;13779;-33.886;151.198;2022-12-07T05:11:10;24.50;87.20
25991;DHT22;13779;-33.886;151.198;2022-12-07T05:14:01;24.60;82.60
25991;DHT22;13779;-33.886;151.198;2022-12-07T05:16:32;24.60;84.80
25991;DHT22;13779;-33.886;151.198;2022-12-07T05:19:03;24.70;81.00
25991;DHT22;13779;-33.886;151.198;2022-12-07T05:21:39;24.70;80.20
25991;DHT22;13779;-33.886;151.198;2022-12-07T05:24:12;24.70;80.60
25991;DHT22;13779;-33.886;151.198;2022-12-07T05:26:43;24.70;81.20
25991;DHT22;13779;-33.886;151.198;2022-12-07T05:29:15;24.80;80.20
25991;DHT22;13779;-33.886;151.198;2022-12-07T05:31:46;24.70;80.10
25991;DHT22;13779;-33.886;151.198;2022-12-07T05:34:17;24.80;79.20
25991;DHT22;13779;-33.886;151.198;2022-12-07T05:36:48;24.80;78.60
25991;DHT22;13779;-33.886;151.198;2022-12-07T05:39:19;24.70;79.00
25991;DHT22;13779;-33.886;151.198;2022-12-07T05:41:50;24.60;79.80
25991;DHT22;13779;-33.886;151.198;2022-12-07T05:44:44;24.70;78.00
25991;DHT22;13779;-33.886;151.198;2022-12-07T05:47:15;24.60;78.50
25991;DHT22;13779;-33.886;151.198;2022-12-07T05:49:46;24.60;78.60
25991;DHT22;13779;-33.886;151.198;2022-12-07T05:52:17;24.60;79.80
25991;DHT22;13779;-33.886;151.198;2022-12-07T05:54:47;24.50;79.10
25991;DHT22;13779;-33.886;151.198;2022-12-07T05:57:18;24.50;79.50
25991;DHT22;13779;-33.886;151.198;2022-12-07T05:59:49;24.50;80.40
25991;DHT22;13779;-33.886;151.198;2022-12-07T06:02:19;24.40;79.70
25991;DHT22;13779;-33.886;151.198;2022-12-07T06:04:50;24.40;81.10
25991;DHT22;13779;-33.886;151.198;2022-12-07T06:07:21;24.40;81.50
25991;DHT22;13779;-33.886;151.198;2022-12-07T06:09:51;24.30;82.60
25991;DHT22;13779;-33.886;151.198;2022-12-07T06:12:22;24.30;82.00
25991;DHT22;13779;-33.886;151.198;2022-12-07T06:15:05;24.40;81.80
25991;DHT22;13779;-33.886;151.198;2022-12-07T06:17:36;24.40;81.70
25991;DHT22;13779;-33.886;151.198;2022-12-07T06:20:07;24.40;82.20
25991;DHT22;13779;-33.886;151.198;2022-12-07T06:22:37;24.30;82.30
25991;DHT22;13779;-33.886;151.198;2022-12-07T06:25:08;24.30;83.10
25991;DHT22;13779;-33.886;151.198;2022-12-07T06:27:39;24.20;83.90
25991;DHT22;13779;-33.886;151.198;2022-12-07T06:30:09;24.30;84.30
25991;DHT22;13779;-33.886;151.198;2022-12-07T06:32:39;24.30;85.30
25991;DHT22;13779;-33.886;151.198;2022-12-07T06:35:10;24.30;88.20
25991;DHT22;13779;-33.886;151.198;2022-12-07T06:37:40;24.30;90.40
25991;DHT22;13779;-33.886;151.198;2022-12-07T06:40:10;24.20;90.80
25991;DHT22;13779;-33.886;151.198;2022-12-07T06:42:40;24.20;91.60
25991;DHT22;13779;-33.886;151.198;2022-12-07T06:45:11;24.10;92.40
25991;DHT22;13779;-33.886;151.198;2022-12-07T06:47:41;24.10;93.30
25991;DHT22;13779;-33.886;151.198;2022-12-07T06:50:11;24.10;93.80
25991;DHT22;13779;-33.886;151.198;2022-12-07T06:52:41;24.10;94.40
25991;DHT22;13779;-33.886;151.198;2022-12-07T06:55:12;24.10;95.00
25991;DHT22;13779;-33.886;151.198;2022-12-07T06:57:42;24.10;95.60
25991;DHT22;13779;-33.886;151.198;2022-12-07T07:00:13;24.10;96.20
25991;DHT22;13779;-33.886;151.198;2022-12-07T07:02:48;24.00;96.70
25991;DHT22;13779;-33.886;151.198;2022-12-07T07:05:18;23.90;97.10
25991;DHT22;13779;-33.886;151.198;2022-12-07T07:07:51;23.90;97.80
25991;DHT22;13779;-33.886;151.198;2022-12-07T07:10:41;23.80;98.30
25991;DHT22;13779;-33.886;151.198;2022-12-07T07:13:12;23.80;99.00
25991;DHT22;13779;-33.886;151.198;2022-12-07T07:15:43;23.80;99.20
25991;DHT22;13779;-33.886;151.198;2022-12-07T07:18:13;23.80;99.40
25991;DHT22;13779;-33.886;151.198;2022-12-07T07:20:43;23.80;99.80
25991;DHT22;13779;-33.886;151.198;2022-12-07T07:23:13;23.70;99.90
25991;DHT22;13779;-33.886;151.198;2022-12-07T07:25:44;23.70;99.90
25991;DHT22;13779;-33.886;151.198;2022-12-07T07:28:15;23.70;99.90
25991;DHT22;13779;-33.886;151.198;2022-12-07T07:30:45;23.70;99.90
25991;DHT22;13779;-33.886;151.198;2022-12-07T07:33:15;23.70;99.90
25991;DHT22;13779;-33.886;151.198;2022-12-07T07:35:45;23.70;99.90
25991;DHT22;13779;-33.886;151.198;2022-12-07T07:38:16;23.70;99.90
25991;DHT22;13779;-33.886;151.198;2022-12-07T07:40:46;23.70;99.90
25991;DHT22;13779;-33.886;151.198;2022-12-07T07:43:16;23.60;99.90
25991;DHT22;13779;-33.886;151.198;2022-12-07T07:45:48;23.60;99.90
25991;DHT22;13779;-33.886;151.198;2022-12-07T07:48:19;23.60;99.90
25991;DHT22;13779;-33.886;151.198;2022-12-07T07:50:49;23.60;99.90
25991;DHT22;13779;-33.886;151.198;2022-12-07T07:53:20;23.50;99.90
25991;DHT22;13779;-33.886;151.198;2022-12-07T07:55:56;23.50;99.90
25991;DHT22;13779;-33.886;151.198;2022-12-07T07:58:26;23.50;99.90
25991;DHT22;13779;-33.886;151.198;2022-12-07T08:00:56;23.50;99.90
25991;DHT22;13779;-33.886;151.198;2022-12-07T08:03:27;23.50;99.90
25991;DHT22;13779;-33.886;151.198;2022-12-07T08:05:57;23.50;99.90
25991;DHT22;13779;-33.886;151.198;2022-12-07T08:08:27;23.40;99.90
25991;DHT22;13779;-33.886;151.198;2022-12-07T08:10:57;23.40;99.90
25991;DHT22;13779;-33.886;151.198;2022-12-07T08:13:30;23.50;99.90
25991;DHT22;13779;-33.886;151.198;2022-12-07T08:16:05;23.50;99.90
25991;DHT22;13779;-33.886;151.198;2022-12-07T08:18:36;23.50;99.90
25991;DHT22;13779;-33.886;151.198;2022-12-07T08:21:09;23.40;99.90
25991;DHT22;13779;-33.886;151.198;2022-12-07T08:23:41;23.40;99.90
25991;DHT22;13779;-33.886;151.198;2022-12-07T08:26:14;23.40;99.90
25991;DHT22;13779;-33.886;151.198;2022-12-07T08:28:45;23.40;99.90
25991;DHT22;13779;-33.886;151.198;2022-12-07T08:31:17;23.40;99.90
25991;DHT22;13779;-33.886;151.198;2022-12-07T08:33:48;23.40;99.90
25991;DHT22;13779;-33.886;151.198;2022-12-07T08:36:19;23.30;99.90
25991;DHT22;13779;-33.886;151.198;2022-12-07T08:38:49;23.30;99.90
25991;DHT22;13779;-33.886;151.198;2022-12-07T08:41:40;23.30;99.90
25991;DHT22;13779;-33.886;151.198;2022-12-07T08:44:10;23.30;99.90
25991;DHT22;13779;-33.886;151.198;2022-12-07T08:46:58;23.30;99.90
25991;DHT22;13779;-33.886;151.198;2022-12-07T08:49:39;23.30;99.90
25991;DHT22;13779;-33.886;151.198;2022-12-07T08:52:10;23.20;99.90
25991;DHT22;13779;-33.886;151.198;2022-12-07T08:54:41;23.20;99.90
25991;DHT22;13779;-33.886;151.198;2022-12-07T08:57:12;23.30;99.90
25991;DHT22;13779;-33.886;151.198;2022-12-07T08:59:42;23.20;99.90
25991;DHT22;13779;-33.886;151.198;2022-12-07T09:02:13;23.20;99.90
25991;DHT22;13779;-33.886;151.198;2022-12-07T09:04:43;23.20;99.90
25991;DHT22;13779;-33.886;151.198;2022-12-07T09:07:13;23.20;99.90
25991;DHT22;13779;-33.886;151.198;2022-12-07T09:09:46;23.20;99.90
25991;DHT22;13779;-33.886;151.198;2022-12-07T09:12:17;23.10;99.90
25991;DHT22;13779;-33.886;151.198;2022-12-07T09:14:47;23.20;99.90
25991;DHT22;13779;-33.886;151.198;2022-12-07T09:17:21;23.10;99.90
25991;DHT22;13779;-33.886;151.198;2022-12-07T09:19:52;23.10;99.90
25991;DHT22;13779;-33.886;151.198;2022-12-07T09:22:22;23.10;99.90
25991;DHT22;13779;-33.886;151.198;2022-12-07T09:24:52;23.10;99.90
25991;DHT22;13779;-33.886;151.198;2022-12-07T09:27:23;23.10;99.90
25991;DHT22;13779;-33.886;151.198;2022-12-07T09:29:54;23.10;99.90
25991;DHT22;13779;-33.886;151.198;2022-12-07T09:32:24;23.10;99.90
25991;DHT22;13779;-33.886;151.198;2022-12-07T09:34:55;23.10;99.90
25991;DHT22;13779;-33.886;151.198;2022-12-07T09:37:28;23.10;99.90
25991;DHT22;13779;-33.886;151.198;2022-12-07T09:39:58;23.10;99.90
25991;DHT22;13779;-33.886;151.198;2022-12-07T09:42:40;23.10;99.90
25991;DHT22;13779;-33.886;151.198;2022-12-07T09:45:25;23.10;99.90
25991;DHT22;13779;-33.886;151.198;2022-12-07T09:47:58;23.00;99.90
25991;DHT22;13779;-33.886;151.198;2022-12-07T09:50:29;23.00;99.90
25991;DHT22;13779;-33.886;151.198;2022-12-07T09:53:15;23.00;99.90
25991;DHT22;13779;-33.886;151.198;2022-12-07T09:55:46;22.90;99.90
25991;DHT22;13779;-33.886;151.198;2022-12-07T09:58:23;22.90;99.90
25991;DHT22;13779;-33.886;151.198;2022-12-07T10:01:21;22.90;99.90
25991;DHT22;13779;-33.886;151.198;2022-12-07T10:04:20;22.90;99.90
25991;DHT22;13779;-33.886;151.198;2022-12-07T10:06:50;22.80;99.90
25991;DHT22;13779;-33.886;151.198;2022-12-07T10:09:22;22.80;99.90
25991;DHT22;13779;-33.886;151.198;2022-12-07T10:14:36;22.80;99.90
25991;DHT22;13779;-33.886;151.198;2022-12-07T10:17:36;22.70;99.90
25991;DHT22;13779;-33.886;151.198;2022-12-07T10:20:17;22.70;99.90
25991;DHT22;13779;-33.886;151.198;2022-12-07T10:23:02;22.70;99.90
25991;DHT22;13779;-33.886;151.198;2022-12-07T10:25:36;22.70;99.90
25991;DHT22;13779;-33.886;151.198;2022-12-07T10:28:18;22.70;99.90
25991;DHT22;13779;-33.886;151.198;2022-12-07T10:33:48;22.70;99.90
25991;DHT22;13779;-33.886;151.198;2022-12-07T10:36:40;22.70;99.90
25991;DHT22;13779;-33.886;151.198;2022-12-07T10:39:19;22.70;99.90
25991;DHT22;13779;-33.886;151.198;2022-12-07T10:42:01;22.70;99.90
25991;DHT22;13779;-33.886;151.198;2022-12-07T10:44:39;22.70;99.90
25991;DHT22;13779;-33.886;151.198;2022-12-07T10:53:03;22.60;99.90
25991;DHT22;13779;-33.886;151.198;2022-12-07T11:07:22;22.60;99.90
25991;DHT22;13779;-33.886;151.198;2022-12-07T11:10:18;22.60;99.90
25991;DHT22;13779;-33.886;151.198;2022-12-07T11:18:29;22.60;99.90
25991;DHT22;13779;-33.886;151.198;2022-12-07T11:26:57;22.60;99.90
25991;DHT22;13779;-33.886;151.198;2022-12-07T11:29:49;22.60;99.90
25991;DHT22;13779;-33.886;151.198;2022-12-07T11:35:30;22.60;99.90
25991;DHT22;13779;-33.886;151.198;2022-12-07T11:38:15;22.50;99.90
25991;DHT22;13779;-33.886;151.198;2022-12-07T11:40:53;22.50;99.90
25991;DHT22;13779;-33.886;151.198;2022-12-07T11:43:34;22.50;99.90
25991;DHT22;13779;-33.886;151.198;2022-12-07T11:46:12;22.50;99.90
25991;DHT22;13779;-33.886;151.198;2022-12-07T11:49:04;22.50;99.90
25991;DHT22;13779;-33.886;151.198;2022-12-07T11:51:39;22.50;99.90
25991;DHT22;13779;-33.886;151.198;2022-12-07T11:54:20;22.50;99.90
25991;DHT22;13779;-33.886;151.198;2022-12-07T11:56:52;22.50;99.90
25991;DHT22;13779;-33.886;151.198;2022-12-07T11:59:40;22.40;99.90
25991;DHT22;13779;-33.886;151.198;2022-12-07T12:03:14;22.50;99.90
25991;DHT22;13779;-33.886;151.198;2022-12-07T12:05:26;22.50;99.90
25991;DHT22;13779;-33.886;151.198;2022-12-07T12:08:11;22.40;99.90
25991;DHT22;13779;-33.886;151.198;2022-12-07T12:22:40;22.30;99.90
25991;DHT22;13779;-33.886;151.198;2022-12-07T12:28:00;22.30;99.90
25991;DHT22;13779;-33.886;151.198;2022-12-07T12:30:40;22.30;99.90
25991;DHT22;13779;-33.886;151.198;2022-12-07T12:33:23;22.30;99.90
25991;DHT22;13779;-33.886;151.198;2022-12-07T12:36:19;22.20;99.90
25991;DHT22;13779;-33.886;151.198;2022-12-07T12:47:03;22.10;99.90
25991;DHT22;13779;-33.886;151.198;2022-12-07T12:49:37;22.10;99.90
25991;DHT22;13779;-33.886;151.198;2022-12-07T12:55:14;22.00;99.90
25991;DHT22;13779;-33.886;151.198;2022-12-07T12:58:30;21.90;99.90
25991;DHT22;13779;-33.886;151.198;2022-12-07T13:04:31;22.00;99.90
25991;DHT22;13779;-33.886;151.198;2022-12-07T13:07:08;22.00;99.90
25991;DHT22;13779;-33.886;151.198;2022-12-07T13:09:44;22.00;99.90
25991;DHT22;13779;-33.886;151.198;2022-12-07T13:12:16;22.00;99.90
25991;DHT22;13779;-33.886;151.198;2022-12-07T13:14:55;21.90;99.90
25991;DHT22;13779;-33.886;151.198;2022-12-07T13:20:06;21.80;99.90
25991;DHT22;13779;-33.886;151.198;2022-12-07T13:22:46;21.80;99.90
25991;DHT22;13779;-33.886;151.198;2022-12-07T13:25:31;21.80;99.90
25991;DHT22;13779;-33.886;151.198;2022-12-07T13:28:38;21.70;99.90
25991;DHT22;13779;-33.886;151.198;2022-12-07T13:34:35;21.70;99.90
25991;DHT22;13779;-33.886;151.198;2022-12-07T13:37:29;21.70;99.90
25991;DHT22;13779;-33.886;151.198;2022-12-07T13:40:22;21.70;99.90
25991;DHT22;13779;-33.886;151.198;2022-12-07T13:43:15;21.60;99.90
25991;DHT22;13779;-33.886;151.198;2022-12-07T13:45:57;21.60;99.90
25991;DHT22;13779;-33.886;151.198;2022-12-07T13:49:13;21.50;99.90
25991;DHT22;13779;-33.886;151.198;2022-12-07T13:51:36;21.50;99.90
25991;DHT22;13779;-33.886;151.198;2022-12-07T13:54:13;21.50;99.90
25991;DHT22;13779;-33.886;151.198;2022-12-07T13:56:49;21.60;99.90
25991;DHT22;13779;-33.886;151.198;2022-12-07T13:59:25;21.50;99.90
25991;DHT22;13779;-33.886;151.198;2022-12-07T14:01:56;21.50;99.90
25991;DHT22;13779;-33.886;151.198;2022-12-07T14:04:35;21.40;99.90
25991;DHT22;13779;-33.886;151.198;2022-12-07T14:10:00;21.50;99.90
25991;DHT22;13779;-33.886;151.198;2022-12-07T14:12:32;21.40;99.90
25991;DHT22;13779;-33.886;151.198;2022-12-07T14:15:15;21.40;99.90
25991;DHT22;13779;-33.886;151.198;2022-12-07T14:17:54;21.40;99.90
25991;DHT22;13779;-33.886;151.198;2022-12-07T14:20:35;21.30;99.90
25991;DHT22;13779;-33.886;151.198;2022-12-07T14:23:25;21.30;99.90
25991;DHT22;13779;-33.886;151.198;2022-12-07T14:26:06;21.30;99.90
25991;DHT22;13779;-33.886;151.198;2022-12-07T14:28:38;21.30;99.90
25991;DHT22;13779;-33.886;151.198;2022-12-07T14:31:17;21.30;99.90
25991;DHT22;13779;-33.886;151.198;2022-12-07T14:33:59;21.30;99.90
25991;DHT22;13779;-33.886;151.198;2022-12-07T14:36:30;21.40;99.90
25991;DHT22;13779;-33.886;151.198;2022-12-07T14:39:00;21.30;99.90
25991;DHT22;13779;-33.886;151.198;2022-12-07T14:41:34;21.30;99.90
25991;DHT22;13779;-33.886;151.198;2022-12-07T14:44:22;21.30;99.90
25991;DHT22;13779;-33.886;151.198;2022-12-07T14:46:59;21.30;99.90
25991;DHT22;13779;-33.886;151.198;2022-12-07T14:49:49;21.30;99.90
25991;DHT22;13779;-33.886;151.198;2022-12-07T14:52:28;21.30;99.90
25991;DHT22;13779;-33.886;151.198;2022-12-07T14:55:30;21.30;99.90
25991;DHT22;13779;-33.886;151.198;2022-12-07T14:58:16;21.30;99.90
25991;DHT22;13779;-33.886;151.198;2022-12-07T15:00:47;21.20;99.90
25991;DHT22;13779;-33.886;151.198;2022-12-07T15:03:18;21.20;99.90
25991;DHT22;13779;-33.886;151.198;2022-12-07T15:05:48;21.20;99.90
25991;DHT22;13779;-33.886;151.198;2022-12-07T15:08:19;21.10;99.90
25991;DHT22;13779;-33.886;151.198;2022-12-07T15:10:50;21.10;99.90
25991;DHT22;13779;-33.886;151.198;2022-12-07T15:13:20;21.10;99.90
25991;DHT22;13779;-33.886;151.198;2022-12-07T15:16:13;21.10;99.90
25991;DHT22;13779;-33.886;151.198;2022-12-07T15:18:43;21.10;99.90
25991;DHT22;13779;-33.886;151.198;2022-12-07T15:21:34;21.10;99.90
25991;DHT22;13779;-33.886;151.198;2022-12-07T15:24:09;21.10;99.90
25991;DHT22;13779;-33.886;151.198;2022-12-07T15:26:41;21.00;99.90
25991;DHT22;13779;-33.886;151.198;2022-12-07T15:29:12;21.00;99.90
25991;DHT22;13779;-33.886;151.198;2022-12-07T15:31:51;21.00;99.90
25991;DHT22;13779;-33.886;151.198;2022-12-07T15:34:26;21.00;99.90
25991;DHT22;13779;-33.886;151.198;2022-12-07T15:37:05;20.90;99.90
25991;DHT22;13779;-33.886;151.198;2022-12-07T15:39:37;20.90;99.90
25991;DHT22;13779;-33.886;151.198;2022-12-07T15:42:07;20.90;99.90
25991;DHT22;13779;-33.886;151.198;2022-12-07T15:44:38;20.90;99.90
25991;DHT22;13779;-33.886;151.198;2022-12-07T15:47:27;20.90;99.90
25991;DHT22;13779;-33.886;151.198;2022-12-07T15:50:13;20.90;99.90
25991;DHT22;13779;-33.886;151.198;2022-12-07T15:52:44;20.90;99.90
25991;DHT22;13779;-33.886;151.198;2022-12-07T15:55:20;20.90;99.90
25991;DHT22;13779;-33.886;151.198;2022-12-07T15:57:51;20.90;99.90
25991;DHT22;13779;-33.886;151.198;2022-12-07T16:00:21;20.90;99.90
25991;DHT22;13779;-33.886;151.198;2022-12-07T16:02:52;20.90;99.90
25991;DHT22;13779;-33.886;151.198;2022-12-07T16:05:23;20.90;99.90
25991;DHT22;13779;-33.886;151.198;2022-12-07T16:07:55;20.90;99.90
25991;DHT22;13779;-33.886;151.198;2022-12-07T16:10:25;20.90;99.90
25991;DHT22;13779;-33.886;151.198;2022-12-07T16:12:56;20.80;99.90
25991;DHT22;13779;-33.886;151.198;2022-12-07T16:15:26;20.80;99.90
25991;DHT22;13779;-33.886;151.198;2022-12-07T16:17:57;20.80;99.90
25991;DHT22;13779;-33.886;151.198;2022-12-07T16:20:27;20.80;99.90
25991;DHT22;13779;-33.886;151.198;2022-12-07T16:22:58;20.80;99.90
25991;DHT22;13779;-33.886;151.198;2022-12-07T16:25:29;20.80;99.90
25991;DHT22;13779;-33.886;151.198;2022-12-07T16:28:00;20.80;99.90
25991;DHT22;13779;-33.886;151.198;2022-12-07T16:30:30;20.80;99.90
25991;DHT22;13779;-33.886;151.198;2022-12-07T16:33:01;20.70;99.90
25991;DHT22;13779;-33.886;151.198;2022-12-07T16:35:31;20.70;99.90
25991;DHT22;13779;-33.886;151.198;2022-12-07T16:38:02;20.70;99.90
25991;DHT22;13779;-33.886;151.198;2022-12-07T16:40:32;20.70;99.90
25991;DHT22;13779;-33.886;151.198;2022-12-07T16:43:03;20.60;99.90
25991;DHT22;13779;-33.886;151.198;2022-12-07T16:45:36;20.60;99.90
25991;DHT22;13779;-33.886;151.198;2022-12-07T16:48:07;20.50;99.90
25991;DHT22;13779;-33.886;151.198;2022-12-07T16:50:40;20.50;99.90
25991;DHT22;13779;-33.886;151.198;2022-12-07T16:53:16;20.50;99.90
25991;DHT22;13779;-33.886;151.198;2022-12-07T16:55:47;20.50;99.90
25991;DHT22;13779;-33.886;151.198;2022-12-07T16:58:17;20.50;99.90
25991;DHT22;13779;-33.886;151.198;2022-12-07T17:00:48;20.50;99.90
25991;DHT22;13779;-33.886;151.198;2022-12-07T17:03:19;20.50;99.90
25991;DHT22;13779;-33.886;151.198;2022-12-07T17:05:49;20.40;99.90
25991;DHT22;13779;-33.886;151.198;2022-12-07T17:08:20;20.40;99.90
25991;DHT22;13779;-33.886;151.198;2022-12-07T17:10:50;20.40;99.90
25991;DHT22;13779;-33.886;151.198;2022-12-07T17:13:21;20.40;99.90
25991;DHT22;13779;-33.886;151.198;2022-12-07T17:16:10;20.40;99.90
25991;DHT22;13779;-33.886;151.198;2022-12-07T17:18:40;20.40;99.90
25991;DHT22;13779;-33.886;151.198;2022-12-07T17:21:11;20.50;99.90
25991;DHT22;13779;-33.886;151.198;2022-12-07T17:23:42;20.40;99.90
25991;DHT22;13779;-33.886;151.198;2022-12-07T17:26:24;20.40;99.90
25991;DHT22;13779;-33.886;151.198;2022-12-07T17:29:00;20.40;99.90
25991;DHT22;13779;-33.886;151.198;2022-12-07T17:31:31;20.30;99.90
25991;DHT22;13779;-33.886;151.198;2022-12-07T17:34:01;20.30;99.90